Time;durP1;ratioP1;P1;durP2;ratioP2;P2;SDS_P1;SDS_P2;PMS_P1;PMS_P2;Temp;Humidity;BMP_temperature;BMP_pressure;BME280_temperature;BME280_humidity;BME280_pressure;Samples;Min_cycle;Max_cycle;Signal;HPM_P1;HPM_P2
2023/10/24 00:00:53;;;;;;;1.75;0.65;;;;;;;;;;5065996;28;20127;-63
2023/10/24 00:03:27;;;;;;;1.05;0.52;;;;;;;;;;5055007;28;20048;-64
2023/10/24 00:05:53;;;;;;;1.65;0.82;;;;;;;;;;5071532;28;20032;-64
2023/10/24 00:08:19;;;;;;;1.13;0.60;;;;;;;;;;5059091;28;20453;-63
2023/10/24 00:10:45;;;;;;;1.20;0.70;;;;;;;;;;5067354;28;20040;-62
2023/10/24 00:13:12;;;;;;;1.15;0.65;;;;;;;;;;5056846;28;20041;-64
2023/10/24 00:15:38;;;;;;;1.65;0.60;;;;;;;;;;5058811;28;20143;-64
2023/10/24 00:18:04;;;;;;;1.10;0.70;;;;;;;;;;5067798;28;20070;-63
2023/10/24 00:20:30;;;;;;;2.05;0.93;;;;;;;;;;5061585;28;20055;-63
2023/10/24 00:22:56;;;;;;;2.20;0.60;;;;;;;;;;5057809;28;20048;-64
2023/10/24 00:25:22;;;;;;;0.70;0.55;;;;;;;;;;5062565;28;20102;-63
2023/10/24 00:27:48;;;;;;;1.98;0.93;;;;;;;;;;5058906;28;20102;-64
2023/10/24 00:30:14;;;;;;;1.27;0.60;;;;;;;;;;5067315;28;20051;-62
2023/10/24 00:32:42;;;;;;;1.20;0.60;;;;;;;;;;5069286;28;20244;-62
2023/10/24 00:35:08;;;;;;;1.75;0.65;;;;;;;;;;5070841;28;20121;-63
2023/10/24 00:37:34;;;;;;;4.80;0.60;;;;;;;;;;5055472;28;20060;-64
2023/10/24 00:40:02;;;;;;;5.28;0.80;;;;;;;;;;5064558;28;20048;-64
2023/10/24 00:42:28;;;;;;;1.08;0.70;;;;;;;;;;5046125;28;20052;-65
2023/10/24 00:44:54;;;;;;;1.70;0.70;;;;;;;;;;5046780;28;20135;-64
2023/10/24 00:47:20;;;;;;;1.08;0.60;;;;;;;;;;5052001;28;20052;-63
2023/10/24 00:49:47;;;;;;;3.22;0.77;;;;;;;;;;5057778;28;20140;-64
2023/10/24 00:52:16;;;;;;;2.30;0.60;;;;;;;;;;5062697;28;20206;-63
2023/10/24 00:54:42;;;;;;;1.05;0.60;;;;;;;;;;5064757;28;20461;-61
2023/10/24 00:57:11;;;;;;;2.80;0.70;;;;;;;;;;5056553;28;20056;-63
2023/10/24 00:59:38;;;;;;;1.52;0.70;;;;;;;;;;5061985;28;20105;-62
2023/10/24 01:02:04;;;;;;;0.82;0.50;;;;;;;;;;5058218;28;20048;-63
2023/10/24 01:04:30;;;;;;;2.17;0.57;;;;;;;;;;5055646;28;20106;-62
2023/10/24 01:06:56;;;;;;;1.30;0.52;;;;;;;;;;5061396;28;20560;-62
2023/10/24 01:09:22;;;;;;;3.70;0.73;;;;;;;;;;5063733;28;20045;-63
2023/10/24 01:11:50;;;;;;;1.17;0.75;;;;;;;;;;5055589;28;20403;-64
2023/10/24 01:14:16;;;;;;;1.80;0.70;;;;;;;;;;5059262;28;20045;-62
2023/10/24 01:16:45;;;;;;;1.27;0.80;;;;;;;;;;5058444;28;20048;-62
2023/10/24 01:19:12;;;;;;;1.80;0.75;;;;;;;;;;5061295;28;20056;-64
2023/10/24 01:21:46;;;;;;;0.73;0.65;;;;;;;;;;5066358;28;20511;-62
2023/10/24 01:24:14;;;;;;;2.72;0.80;;;;;;;;;;5059833;28;20049;-64
2023/10/24 01:26:41;;;;;;;1.85;0.60;;;;;;;;;;5068176;28;20045;-64
2023/10/24 01:29:07;;;;;;;2.70;0.52;;;;;;;;;;5070056;28;20048;-63
2023/10/24 01:31:33;;;;;;;0.93;0.50;;;;;;;;;;5060791;28;20071;-64
2023/10/24 01:33:59;;;;;;;0.80;0.60;;;;;;;;;;5057353;28;20044;-63
2023/10/24 01:36:26;;;;;;;2.00;0.70;;;;;;;;;;5063777;28;20492;-64
2023/10/24 01:38:51;;;;;;;2.67;0.68;;;;;;;;;;5061737;28;20063;-63
2023/10/24 01:41:18;;;;;;;0.80;0.57;;;;;;;;;;5062300;28;20424;-64
2023/10/24 01:43:43;;;;;;;1.42;0.60;;;;;;;;;;5054086;28;20071;-62
2023/10/24 01:46:09;;;;;;;1.15;0.70;;;;;;;;;;5061925;28;20057;-63
2023/10/24 01:48:35;;;;;;;1.15;0.50;;;;;;;;;;5061086;28;20510;-63
2023/10/24 01:51:02;;;;;;;1.65;0.55;;;;;;;;;;5059391;28;20052;-64
2023/10/24 01:53:28;;;;;;;2.45;0.40;;;;;;;;;;5069753;28;20058;-62
2023/10/24 01:55:54;;;;;;;1.65;0.60;;;;;;;;;;5053940;28;20497;-64
2023/10/24 01:58:21;;;;;;;0.85;0.60;;;;;;;;;;5064148;28;20126;-63
2023/10/24 02:00:47;;;;;;;1.10;0.70;;;;;;;;;;5058866;28;20444;-64
2023/10/24 02:03:14;;;;;;;2.08;0.70;;;;;;;;;;5066508;28;20049;-64
2023/10/24 02:05:40;;;;;;;1.58;0.90;;;;;;;;;;5064419;28;20766;-64
2023/10/24 02:08:07;;;;;;;1.02;0.50;;;;;;;;;;5060557;28;20811;-63
2023/10/24 02:10:33;;;;;;;0.50;0.40;;;;;;;;;;5064483;28;20282;-63
2023/10/24 02:12:59;;;;;;;0.63;0.50;;;;;;;;;;5057439;28;20041;-63
2023/10/24 02:15:25;;;;;;;0.98;0.50;;;;;;;;;;5060407;28;20053;-63
2023/10/24 02:17:51;;;;;;;0.90;0.45;;;;;;;;;;5050857;28;20468;-62
2023/10/24 02:20:17;;;;;;;0.82;0.52;;;;;;;;;;5060417;28;20055;-62
2023/10/24 02:22:48;;;;;;;0.95;0.50;;;;;;;;;;5057518;28;20053;-62
2023/10/24 02:25:14;;;;;;;2.25;0.80;;;;;;;;;;5063673;28;20044;-62
2023/10/24 02:27:41;;;;;;;1.88;0.55;;;;;;;;;;5067597;28;20052;-63
2023/10/24 02:30:07;;;;;;;1.20;0.45;;;;;;;;;;5064012;28;20044;-63
2023/10/24 02:32:33;;;;;;;1.35;0.77;;;;;;;;;;5055424;28;20102;-62
2023/10/24 02:35:01;;;;;;;1.73;0.68;;;;;;;;;;5064180;28;20086;-63
2023/10/24 02:37:27;;;;;;;0.50;0.50;;;;;;;;;;5063473;28;20076;-63
2023/10/24 02:39:53;;;;;;;1.52;0.70;;;;;;;;;;5068156;28;20595;-63
2023/10/24 02:42:19;;;;;;;1.00;0.50;;;;;;;;;;5066310;28;20107;-62
2023/10/24 02:44:48;;;;;;;1.30;0.73;;;;;;;;;;5070669;28;20491;-62
2023/10/24 02:47:15;;;;;;;0.55;0.55;;;;;;;;;;5074477;28;20052;-62
2023/10/24 02:49:41;;;;;;;1.35;0.50;;;;;;;;;;5071802;28;20052;-62
2023/10/24 02:52:07;;;;;;;2.00;0.70;;;;;;;;;;5049538;28;20083;-64
2023/10/24 02:54:33;;;;;;;1.48;0.70;;;;;;;;;;5060939;28;20420;-63
2023/10/24 02:57:00;;;;;;;0.55;0.50;;;;;;;;;;5063617;28;20131;-63
2023/10/24 02:59:26;;;;;;;1.70;0.40;;;;;;;;;;5059832;28;20044;-64
2023/10/24 03:01:51;;;;;;;0.85;0.50;;;;;;;;;;5070033;28;20135;-62
2023/10/24 03:04:17;;;;;;;1.77;0.70;;;;;;;;;;5062248;28;20359;-64
2023/10/24 03:06:44;;;;;;;0.50;0.47;;;;;;;;;;5070920;28;20496;-63
2023/10/24 03:09:11;;;;;;;1.45;0.73;;;;;;;;;;5059302;28;20044;-64
2023/10/24 03:11:37;;;;;;;1.63;0.70;;;;;;;;;;5057006;28;20059;-65
2023/10/24 03:14:03;;;;;;;0.65;0.50;;;;;;;;;;5060532;28;20130;-65
2023/10/24 03:16:29;;;;;;;0.43;0.40;;;;;;;;;;5043366;28;20511;-63
2023/10/24 03:18:56;;;;;;;0.57;0.50;;;;;;;;;;5058391;28;20060;-65
2023/10/24 03:21:21;;;;;;;0.70;0.40;;;;;;;;;;5058931;28;20049;-62
2023/10/24 03:23:48;;;;;;;0.50;0.50;;;;;;;;;;5065996;28;20052;-63
2023/10/24 03:26:14;;;;;;;1.52;0.60;;;;;;;;;;5048201;28;20109;-62
2023/10/24 03:28:41;;;;;;;2.08;0.75;;;;;;;;;;5060795;28;20078;-65
2023/10/24 03:31:08;;;;;;;1.10;0.52;;;;;;;;;;5056685;28;20488;-63
2023/10/24 03:33:34;;;;;;;1.27;0.60;;;;;;;;;;5068918;28;20047;-64
2023/10/24 03:36:00;;;;;;;0.77;0.60;;;;;;;;;;5072430;28;20048;-63
2023/10/24 03:38:27;;;;;;;1.02;0.50;;;;;;;;;;5064772;28;20044;-62
2023/10/24 03:40:53;;;;;;;1.02;0.50;;;;;;;;;;5059653;28;20063;-64
2023/10/24 03:43:21;;;;;;;0.57;0.57;;;;;;;;;;5060628;28;20043;-64
2023/10/24 03:45:48;;;;;;;1.70;0.60;;;;;;;;;;5060394;28;20079;-63
2023/10/24 03:48:14;;;;;;;1.05;0.60;;;;;;;;;;5062461;28;20048;-62
2023/10/24 03:50:41;;;;;;;0.75;0.43;;;;;;;;;;5066100;28;20093;-63
2023/10/24 03:53:07;;;;;;;0.60;0.40;;;;;;;;;;5057546;28;20056;-62
2023/10/24 03:55:34;;;;;;;0.50;0.50;;;;;;;;;;5056237;28;20048;-63
2023/10/24 03:58:00;;;;;;;2.45;0.60;;;;;;;;;;5058691;28;20045;-64
2023/10/24 04:00:26;;;;;;;0.63;0.40;;;;;;;;;;5058783;28;20432;-65
2023/10/24 04:02:53;;;;;;;0.57;0.57;;;;;;;;;;5060400;28;20071;-63
2023/10/24 04:05:20;;;;;;;0.77;0.50;;;;;;;;;;5065492;28;20052;-64
2023/10/24 04:07:46;;;;;;;0.80;0.50;;;;;;;;;;5058941;28;20052;-65
2023/10/24 04:10:13;;;;;;;0.80;0.60;;;;;;;;;;5059624;28;20173;-63
2023/10/24 04:12:40;;;;;;;0.80;0.50;;;;;;;;;;5069957;28;20140;-63
2023/10/24 04:15:07;;;;;;;0.98;0.60;;;;;;;;;;5061954;28;20076;-63
2023/10/24 04:17:33;;;;;;;0.57;0.57;;;;;;;;;;5054275;28;20595;-66
2023/10/24 04:19:59;;;;;;;0.98;0.50;;;;;;;;;;5059940;28;20040;-64
2023/10/24 04:22:27;;;;;;;1.23;0.60;;;;;;;;;;5064844;28;20049;-63
2023/10/24 04:24:54;;;;;;;0.70;0.50;;;;;;;;;;5062662;28;20187;-64
2023/10/24 04:27:22;;;;;;;1.67;0.70;;;;;;;;;;5066056;28;20251;-63
2023/10/24 04:29:48;;;;;;;2.78;0.63;;;;;;;;;;5056560;28;20064;-64
2023/10/24 04:32:14;;;;;;;1.25;0.65;;;;;;;;;;5057482;28;20066;-63
2023/10/24 04:34:40;;;;;;;0.80;0.50;;;;;;;;;;5060205;28;20045;-63
2023/10/24 04:37:06;;;;;;;1.75;0.65;;;;;;;;;;5047421;28;20140;-63
2023/10/24 04:39:34;;;;;;;1.17;0.60;;;;;;;;;;5064989;28;20148;-64
2023/10/24 04:42:01;;;;;;;4.50;0.68;;;;;;;;;;5058044;28;20455;-65
2023/10/24 04:44:28;;;;;;;2.50;0.70;;;;;;;;;;5067202;28;20066;-61
2023/10/24 04:46:57;;;;;;;0.60;0.50;;;;;;;;;;5047720;28;20059;-62
2023/10/24 04:49:22;;;;;;;1.17;0.52;;;;;;;;;;5044184;28;20056;-60
2023/10/24 04:51:49;;;;;;;0.45;0.45;;;;;;;;;;5062020;28;20093;-63
2023/10/24 04:54:17;;;;;;;3.30;0.93;;;;;;;;;;5063790;28;20044;-61
2023/10/24 04:56:44;;;;;;;3.33;0.80;;;;;;;;;;5072981;28;20045;-62
2023/10/24 04:59:10;;;;;;;1.75;0.70;;;;;;;;;;5069628;28;20041;-61
2023/10/24 05:01:38;;;;;;;2.70;0.73;;;;;;;;;;5053486;28;20421;-62
2023/10/24 05:04:07;;;;;;;2.78;0.80;;;;;;;;;;5067259;28;20241;-62
2023/10/24 05:06:35;;;;;;;1.83;1.00;;;;;;;;;;5071848;28;20131;-62
2023/10/24 05:09:01;;;;;;;6.90;0.82;;;;;;;;;;5065288;28;20340;-63
2023/10/24 05:11:27;;;;;;;1.27;0.80;;;;;;;;;;5061027;28;20076;-63
2023/10/24 05:13:53;;;;;;;3.40;1.05;;;;;;;;;;5067664;28;20075;-62
2023/10/24 05:16:19;;;;;;;5.18;0.80;;;;;;;;;;5067264;28;20464;-65
2023/10/24 05:18:46;;;;;;;1.23;0.70;;;;;;;;;;5064806;28;20040;-64
2023/10/24 05:21:16;;;;;;;2.38;0.70;;;;;;;;;;5052682;28;20040;-64
2023/10/24 05:23:43;;;;;;;2.85;0.90;;;;;;;;;;5068830;28;20047;-63
2023/10/24 05:26:10;;;;;;;4.95;0.90;;;;;;;;;;5062693;28;20049;-63
2023/10/24 05:28:37;;;;;;;2.80;0.88;;;;;;;;;;5055676;28;20629;-64
2023/10/24 05:31:27;;;;;;;5.72;1.10;;;;;;;;;;5049114;28;20222;-65
2023/10/24 05:33:52;;;;;;;3.08;1.00;;;;;;;;;;5060689;28;20048;-63
2023/10/24 05:36:19;;;;;;;1.77;0.75;;;;;;;;;;5058973;28;20465;-67
2023/10/24 05:38:45;;;;;;;1.98;0.85;;;;;;;;;;5062967;28;20120;-65
2023/10/24 05:41:11;;;;;;;1.13;0.80;;;;;;;;;;5058993;28;20064;-63
2023/10/24 05:44:17;;;;;;;2.22;0.88;;;;;;;;;;5069139;28;20060;-63
2023/10/24 05:47:57;;;;;;;2.13;0.85;;;;;;;;;;5066068;28;20045;-63
2023/10/24 05:51:38;;;;;;;2.92;0.70;;;;;;;;;;5060658;28;20041;-66
2023/10/24 05:55:18;;;;;;;4.43;1.00;;;;;;;;;;5062020;28;20361;-62
2023/10/24 05:59:00;;;;;;;1.30;0.80;;;;;;;;;;5056596;28;20049;-65
2023/10/24 06:02:43;;;;;;;3.65;0.80;;;;;;;;;;5059498;28;20086;-63
2023/10/24 06:06:24;;;;;;;2.35;0.80;;;;;;;;;;5063803;28;20055;-63
2023/10/24 06:10:05;;;;;;;3.97;0.80;;;;;;;;;;5056462;28;20480;-61
2023/10/24 06:13:45;;;;;;;3.97;1.30;;;;;;;;;;5062312;28;20498;-62
2023/10/24 06:17:26;;;;;;;5.50;1.55;;;;;;;;;;5068076;28;20381;-60
2023/10/24 06:21:06;;;;;;;3.25;1.52;;;;;;;;;;5058812;28;20056;-63
2023/10/24 06:24:07;;;;;;;3.30;1.00;;;;;;;;;;5062813;28;20051;-65
2023/10/24 06:27:28;;;;;;;1.48;0.98;;;;;;;;;;5050605;28;20050;-64
2023/10/24 06:31:08;;;;;;;5.50;0.93;;;;;;;;;;5055146;28;20032;-65
2023/10/24 06:34:49;;;;;;;2.78;0.68;;;;;;;;;;5059509;28;20454;-65
2023/10/24 06:37:15;;;;;;;1.10;0.70;;;;;;;;;;5059118;28;20048;-63
2023/10/24 06:40:21;;;;;;;4.18;0.80;;;;;;;;;;5059603;28;20344;-67
2023/10/24 06:43:23;;;;;;;4.15;0.90;;;;;;;;;;5063941;28;20185;-65
2023/10/24 06:46:29;;;;;;;2.88;0.90;;;;;;;;;;5043831;28;20048;-65
2023/10/24 06:50:09;;;;;;;5.78;0.93;;;;;;;;;;5064402;28;20071;-66
2023/10/24 06:53:49;;;;;;;2.17;0.98;;;;;;;;;;5060437;28;20083;-63
2023/10/24 06:57:30;;;;;;;2.25;0.90;;;;;;;;;;5052648;28;20120;-66
2023/10/24 07:01:10;;;;;;;1.92;0.90;;;;;;;;;;5056530;28;20046;-65
2023/10/24 07:04:52;;;;;;;6.38;0.90;;;;;;;;;;5062509;28;20048;-66
2023/10/24 07:08:32;;;;;;;1.30;1.02;;;;;;;;;;5059417;28;20051;-65
2023/10/24 07:12:12;;;;;;;2.97;0.80;;;;;;;;;;5067753;28;20121;-65
2023/10/24 07:15:54;;;;;;;5.57;1.13;;;;;;;;;;5058254;28;20040;-68
2023/10/24 07:19:34;;;;;;;4.82;1.00;;;;;;;;;;5065354;28;20048;-67
2023/10/24 07:23:15;;;;;;;4.43;0.73;;;;;;;;;;5058635;28;20052;-66
2023/10/24 07:26:55;;;;;;;4.82;1.00;;;;;;;;;;5060756;28;20101;-67
2023/10/24 07:30:35;;;;;;;6.75;1.20;;;;;;;;;;5068235;28;20405;-67
2023/10/24 07:34:18;;;;;;;4.43;1.00;;;;;;;;;;5066591;28;20373;-65
2023/10/24 07:37:59;;;;;;;1.77;0.98;;;;;;;;;;5062193;28;20071;-65
2023/10/24 07:41:39;;;;;;;5.30;1.38;;;;;;;;;;5066474;28;20079;-67
2023/10/24 07:45:20;;;;;;;8.52;1.05;;;;;;;;;;5062508;28;20064;-68
2023/10/24 07:49:00;;;;;;;3.47;1.00;;;;;;;;;;5056249;28;20048;-68
2023/10/24 07:52:40;;;;;;;2.47;1.10;;;;;;;;;;5064584;28;20102;-65
2023/10/24 07:56:21;;;;;;;2.30;1.05;;;;;;;;;;5062967;28;20405;-65
2023/10/24 08:00:01;;;;;;;4.68;1.00;;;;;;;;;;5063587;28;20051;-66
2023/10/24 08:03:42;;;;;;;1.27;0.80;;;;;;;;;;5065776;28;20044;-66
2023/10/24 08:07:22;;;;;;;3.83;1.27;;;;;;;;;;5056552;28;20403;-66
2023/10/24 08:11:02;;;;;;;2.92;0.95;;;;;;;;;;5060013;28;20516;-66
2023/10/24 08:14:42;;;;;;;1.38;0.65;;;;;;;;;;5066320;28;20272;-68
2023/10/24 08:18:23;;;;;;;3.80;1.15;;;;;;;;;;5068505;28;20040;-67
2023/10/24 08:22:03;;;;;;;7.57;0.90;;;;;;;;;;5075158;28;20117;-67
2023/10/24 08:25:44;;;;;;;1.20;0.70;;;;;;;;;;5078459;28;20051;-66
2023/10/24 08:29:24;;;;;;;1.38;0.60;;;;;;;;;;5067779;28;20051;-67
2023/10/24 08:33:04;;;;;;;1.83;0.90;;;;;;;;;;5071765;28;20380;-67
2023/10/24 08:36:46;;;;;;;3.72;1.20;;;;;;;;;;5065706;28;20094;-67
2023/10/24 08:40:27;;;;;;;2.05;1.13;;;;;;;;;;5053544;28;20075;-67
2023/10/24 08:44:07;;;;;;;0.80;0.60;;;;;;;;;;5086126;28;20553;-68
2023/10/24 08:47:47;;;;;;;3.03;1.48;;;;;;;;;;5069428;28;20399;-65
2023/10/24 08:51:28;;;;;;;1.98;1.30;;;;;;;;;;5069036;28;20093;-68
2023/10/24 08:55:08;;;;;;;1.13;0.70;;;;;;;;;;5072301;28;20311;-68
2023/10/24 08:58:50;;;;;;;1.17;0.90;;;;;;;;;;5077438;28;20079;-68
2023/10/24 09:02:30;;;;;;;3.92;1.60;;;;;;;;;;5069351;28;20048;-66
2023/10/24 09:06:11;;;;;;;3.35;0.80;;;;;;;;;;5071942;28;20056;-68
2023/10/24 09:09:57;;;;;;;2.40;0.68;;;;;;;;;;5059644;28;20741;-67
2023/10/24 09:13:39;;;;;;;1.55;0.65;;;;;;;;;;5060721;28;20535;-68
2023/10/24 09:17:19;;;;;;;0.57;0.57;;;;;;;;;;5067419;28;20567;-68
2023/10/24 09:20:59;;;;;;;1.65;0.50;;;;;;;;;;5077296;28;20496;-67
2023/10/24 09:24:42;;;;;;;3.65;0.63;;;;;;;;;;5060345;28;20060;-69
2023/10/24 09:28:34;;;;;;;1.15;0.60;;;;;;;;;;5061821;28;20044;-68
2023/10/24 09:32:17;;;;;;;1.67;0.90;;;;;;;;;;5070704;28;20511;-68
2023/10/24 09:35:57;;;;;;;1.02;0.70;;;;;;;;;;5067119;28;20512;-68
2023/10/24 09:39:38;;;;;;;1.05;0.65;;;;;;;;;;5055296;28;20045;-67
2023/10/24 09:43:18;;;;;;;2.58;0.75;;;;;;;;;;5048632;28;20044;-69
2023/10/24 09:47:00;;;;;;;0.60;0.30;;;;;;;;;;5045294;28;20049;-68
2023/10/24 09:50:40;;;;;;;1.10;0.52;;;;;;;;;;5036752;28;20045;-67
2023/10/24 09:54:20;;;;;;;0.95;0.50;;;;;;;;;;5040025;28;20125;-67
2023/10/24 09:58:01;;;;;;;1.00;0.55;;;;;;;;;;5050755;28;20080;-67
2023/10/24 10:01:41;;;;;;;1.17;0.50;;;;;;;;;;5055598;28;20045;-68
2023/10/24 10:05:23;;;;;;;0.88;0.57;;;;;;;;;;5042014;28;20508;-67
2023/10/24 10:09:03;;;;;;;1.00;0.63;;;;;;;;;;5053018;28;20049;-68
2023/10/24 10:12:45;;;;;;;3.35;0.90;;;;;;;;;;5047675;28;20124;-69
2023/10/24 10:16:07;;;;;;;3.45;1.00;;;;;;;;;;5051411;28;20709;-68
2023/10/24 10:19:40;;;;;;;0.70;0.60;;;;;;;;;;5059480;28;20120;-68
2023/10/24 10:23:07;;;;;;;2.35;0.52;;;;;;;;;;5046006;28;20436;-66
2023/10/24 10:26:33;;;;;;;1.63;0.60;;;;;;;;;;5043675;28;20103;-68
2023/10/24 10:30:02;;;;;;;3.47;0.73;;;;;;;;;;5040917;28;20469;-68
2023/10/24 10:33:54;;;;;;;1.48;0.47;;;;;;;;;;5043803;28;20074;-67
2023/10/24 10:37:32;;;;;;;3.42;0.70;;;;;;;;;;5047510;28;20041;-70
2023/10/24 10:41:12;;;;;;;2.03;0.82;;;;;;;;;;5060620;28;20075;-69
2023/10/24 10:45:01;;;;;;;2.88;1.00;;;;;;;;;;5056649;28;20158;-68
2023/10/24 10:48:41;;;;;;;1.40;0.70;;;;;;;;;;5063485;28;20048;-67
2023/10/24 10:52:23;;;;;;;4.30;0.70;;;;;;;;;;5067269;28;20052;-68
2023/10/24 10:55:55;;;;;;;1.73;0.68;;;;;;;;;;5067204;28;20090;-69
2023/10/24 10:59:08;;;;;;;3.67;0.70;;;;;;;;;;5060328;28;20044;-69
2023/10/24 11:02:28;;;;;;;2.80;0.70;;;;;;;;;;5057513;28;20080;-68
2023/10/24 11:05:37;;;;;;;2.78;0.40;;;;;;;;;;5067753;28;20075;-69
2023/10/24 11:09:30;;;;;;;3.03;0.50;;;;;;;;;;5067521;28;20151;-69
2023/10/24 11:13:10;;;;;;;1.40;0.55;;;;;;;;;;5072162;28;20234;-69
2023/10/24 11:16:52;;;;;;;1.20;0.47;;;;;;;;;;5068077;28;20472;-68
2023/10/24 11:20:31;;;;;;;0.93;0.47;;;;;;;;;;5058595;28;20047;-67
2023/10/24 11:24:11;;;;;;;1.30;0.60;;;;;;;;;;5063895;28;20055;-69
2023/10/24 11:27:51;;;;;;;1.25;0.60;;;;;;;;;;5065164;28;20041;-68
2023/10/24 11:31:35;;;;;;;2.80;0.70;;;;;;;;;;5066559;28;20041;-68
2023/10/24 11:35:15;;;;;;;2.95;0.40;;;;;;;;;;5063118;28;20044;-66
2023/10/24 11:38:58;;;;;;;1.83;0.60;;;;;;;;;;5063692;28;20258;-69
2023/10/24 11:42:35;;;;;;;2.05;0.52;;;;;;;;;;5063239;28;20056;-68
2023/10/24 11:46:16;;;;;;;1.83;0.57;;;;;;;;;;5061442;28;20068;-68
2023/10/24 11:49:56;;;;;;;6.40;0.60;;;;;;;;;;5062227;28;20261;-69
2023/10/24 11:53:39;;;;;;;1.38;0.50;;;;;;;;;;5062664;28;20051;-67
2023/10/24 11:57:20;;;;;;;0.98;0.55;;;;;;;;;;5062659;28;20056;-68
2023/10/24 12:01:00;;;;;;;3.92;0.75;;;;;;;;;;5063983;28;20442;-68
2023/10/24 12:04:41;;;;;;;1.73;0.30;;;;;;;;;;5077386;28;20283;-69
2023/10/24 12:08:22;;;;;;;1.90;0.82;;;;;;;;;;5081038;28;20513;-68
2023/10/24 12:12:03;;;;;;;2.78;0.50;;;;;;;;;;5070022;28;20083;-69
2023/10/24 12:15:44;;;;;;;0.73;0.60;;;;;;;;;;5059758;28;20036;-67
2023/10/24 12:19:24;;;;;;;2.85;0.50;;;;;;;;;;5061381;28;20473;-70
2023/10/24 12:23:04;;;;;;;1.00;0.52;;;;;;;;;;5064054;28;20067;-73
2023/10/24 12:26:45;;;;;;;2.35;0.90;;;;;;;;;;5073192;28;20127;-69
2023/10/24 12:30:25;;;;;;;3.08;0.90;;;;;;;;;;5060054;28;20110;-69
2023/10/24 12:34:10;;;;;;;0.52;0.50;;;;;;;;;;5068749;28;20392;-70
2023/10/24 12:37:48;;;;;;;1.85;0.45;;;;;;;;;;5063002;28;20043;-69
2023/10/24 12:41:30;;;;;;;1.52;0.50;;;;;;;;;;5073322;28;20051;-68
2023/10/24 12:45:11;;;;;;;1.38;0.50;;;;;;;;;;5069678;28;20056;-68
2023/10/24 12:48:52;;;;;;;0.90;0.50;;;;;;;;;;5070110;28;20048;-69
2023/10/24 12:52:33;;;;;;;0.88;0.60;;;;;;;;;;5068315;28;20425;-69
2023/10/24 12:56:13;;;;;;;1.23;0.68;;;;;;;;;;5069190;28;20041;-68
2023/10/24 12:59:53;;;;;;;1.15;0.50;;;;;;;;;;5067252;28;20060;-71
2023/10/24 13:03:34;;;;;;;5.50;0.60;;;;;;;;;;5082390;28;20519;-68
2023/10/24 13:07:17;;;;;;;3.22;0.50;;;;;;;;;;5071463;28;20125;-68
2023/10/24 13:10:57;;;;;;;2.35;0.40;;;;;;;;;;5070983;28;20475;-68
2023/10/24 13:14:38;;;;;;;0.70;0.50;;;;;;;;;;5064716;28;20163;-71
2023/10/24 13:18:19;;;;;;;5.93;0.80;;;;;;;;;;5064886;28;20051;-70
2023/10/24 13:22:00;;;;;;;2.05;0.70;;;;;;;;;;5063214;28;20515;-70
2023/10/24 13:25:41;;;;;;;1.17;0.45;;;;;;;;;;5062951;28;20076;-67
2023/10/24 13:29:23;;;;;;;0.70;0.40;;;;;;;;;;5061012;28;20121;-69
2023/10/24 13:33:05;;;;;;;1.52;0.60;;;;;;;;;;5072230;28;20047;-70
2023/10/24 13:36:47;;;;;;;2.58;0.80;;;;;;;;;;5067064;28;20040;-70
2023/10/24 13:40:27;;;;;;;1.08;0.60;;;;;;;;;;5065346;28;20087;-69
2023/10/24 13:44:07;;;;;;;2.38;0.90;;;;;;;;;;5072411;28;20056;-69
2023/10/24 13:47:47;;;;;;;2.33;0.70;;;;;;;;;;5065145;28;20114;-68
2023/10/24 13:51:28;;;;;;;0.80;0.50;;;;;;;;;;5063224;28;20365;-72
2023/10/24 13:55:08;;;;;;;7.60;0.60;;;;;;;;;;5067607;28;20040;-69
2023/10/24 13:58:50;;;;;;;3.00;0.45;;;;;;;;;;5062870;28;20075;-69
2023/10/24 14:02:30;;;;;;;0.77;0.40;;;;;;;;;;5058961;28;20094;-68
2023/10/24 14:06:11;;;;;;;2.88;0.70;;;;;;;;;;5071109;28;20193;-70
2023/10/24 14:09:51;;;;;;;1.75;0.50;;;;;;;;;;5070431;28;20052;-71
2023/10/24 14:13:31;;;;;;;2.60;0.73;;;;;;;;;;5060525;28;20044;-73
2023/10/24 14:17:12;;;;;;;1.13;0.60;;;;;;;;;;5066279;28;20408;-70
2023/10/24 14:20:52;;;;;;;1.58;0.68;;;;;;;;;;5061918;28;20055;-69
2023/10/24 14:24:32;;;;;;;2.88;0.50;;;;;;;;;;5070052;28;20044;-71
2023/10/24 14:28:13;;;;;;;1.50;0.60;;;;;;;;;;5067001;28;20404;-72
2023/10/24 14:31:58;;;;;;;0.47;0.45;;;;;;;;;;5059268;28;20057;-71
2023/10/24 14:35:39;;;;;;;3.57;0.63;;;;;;;;;;5064727;28;20063;-70
2023/10/24 14:39:19;;;;;;;2.25;0.47;;;;;;;;;;5063250;28;20356;-72
2023/10/24 14:43:03;;;;;;;2.50;0.45;;;;;;;;;;5052431;28;20049;-70
2023/10/24 14:46:47;;;;;;;1.13;0.60;;;;;;;;;;5061312;28;20162;-73
2023/10/24 14:50:26;;;;;;;12.02;0.65;;;;;;;;;;5058618;28;20058;-70
2023/10/24 14:54:06;;;;;;;3.20;1.00;;;;;;;;;;5058233;28;20041;-73
2023/10/24 14:57:46;;;;;;;2.05;0.52;;;;;;;;;;5068301;28;20408;-71
2023/10/24 15:01:27;;;;;;;3.35;0.60;;;;;;;;;;5067699;28;20063;-71
2023/10/24 15:05:10;;;;;;;6.28;0.70;;;;;;;;;;5077332;28;20044;-71
2023/10/24 15:08:52;;;;;;;5.88;0.80;;;;;;;;;;5061771;28;20481;-69
2023/10/24 15:12:35;;;;;;;3.50;0.52;;;;;;;;;;5058413;28;20052;-71
2023/10/24 15:16:15;;;;;;;0.50;0.40;;;;;;;;;;5054782;28;20050;-73
2023/10/24 15:19:55;;;;;;;4.80;0.57;;;;;;;;;;5064076;28;20395;-71
2023/10/24 15:23:36;;;;;;;3.83;0.80;;;;;;;;;;5058869;28;20047;-70
2023/10/24 15:27:17;;;;;;;2.00;0.50;;;;;;;;;;5072499;28;20049;-70
2023/10/24 15:30:56;;;;;;;3.90;0.70;;;;;;;;;;5062125;28;20040;-70
2023/10/24 15:34:37;;;;;;;1.42;0.57;;;;;;;;;;5066777;28;20051;-70
2023/10/24 15:38:18;;;;;;;5.78;0.77;;;;;;;;;;5072787;28;20574;-73
2023/10/24 15:41:59;;;;;;;3.38;1.00;;;;;;;;;;5057050;28;20056;-71
2023/10/24 15:45:57;;;;;;;0.90;0.45;;;;;;;;;;5059609;28;20079;-70
2023/10/24 15:49:37;;;;;;;4.82;0.52;;;;;;;;;;5060004;28;20472;-70
2023/10/24 15:53:18;;;;;;;1.77;0.70;;;;;;;;;;5067721;28;20052;-71
2023/10/24 15:56:58;;;;;;;2.88;0.73;;;;;;;;;;5058408;28;20102;-72
2023/10/24 16:00:40;;;;;;;1.60;0.60;;;;;;;;;;5052555;28;20063;-70
2023/10/24 16:04:20;;;;;;;1.20;0.65;;;;;;;;;;5062226;28;20546;-70
2023/10/24 16:08:00;;;;;;;1.05;0.63;;;;;;;;;;5075296;28;20040;-71
2023/10/24 16:11:41;;;;;;;2.58;0.57;;;;;;;;;;5063200;28;20054;-68
2023/10/24 16:15:21;;;;;;;0.85;0.60;;;;;;;;;;5066779;28;20125;-71
2023/10/24 16:19:02;;;;;;;1.83;0.80;;;;;;;;;;5054189;28;20067;-71
2023/10/24 16:22:42;;;;;;;1.90;0.60;;;;;;;;;;5072109;28;20040;-73
2023/10/24 16:26:23;;;;;;;4.20;0.60;;;;;;;;;;5063390;28;20133;-71
2023/10/24 16:30:04;;;;;;;2.05;0.68;;;;;;;;;;5084366;28;20082;-71
2023/10/24 16:33:44;;;;;;;3.33;0.70;;;;;;;;;;5055846;28;20109;-71
2023/10/24 16:37:24;;;;;;;1.67;0.98;;;;;;;;;;5076864;28;20063;-72
2023/10/24 16:41:08;;;;;;;3.22;1.27;;;;;;;;;;5067359;28;20056;-73
2023/10/24 16:44:50;;;;;;;5.55;1.00;;;;;;;;;;5067665;28;20096;-71
2023/10/24 16:48:31;;;;;;;1.95;0.80;;;;;;;;;;5074439;28;20131;-68
2023/10/24 16:52:10;;;;;;;3.70;0.80;;;;;;;;;;5075355;28;20048;-71
2023/10/24 16:55:52;;;;;;;3.78;0.90;;;;;;;;;;5060677;28;20048;-71
2023/10/24 16:59:33;;;;;;;1.45;0.90;;;;;;;;;;5062446;28;20037;-71
2023/10/24 17:03:14;;;;;;;4.68;2.00;;;;;;;;;;5071602;28;20083;-74
2023/10/24 17:06:54;;;;;;;5.47;0.80;;;;;;;;;;5071008;28;20078;-70
2023/10/24 17:10:35;;;;;;;1.85;0.90;;;;;;;;;;5068311;28;20485;-72
2023/10/24 17:14:15;;;;;;;3.58;0.90;;;;;;;;;;5076377;28;20060;-71
2023/10/24 17:17:55;;;;;;;2.72;0.80;;;;;;;;;;5069364;28;20127;-73
2023/10/24 17:21:35;;;;;;;2.83;0.95;;;;;;;;;;5056998;28;20079;-72
2023/10/24 17:25:20;;;;;;;3.38;1.40;;;;;;;;;;5062372;28;20040;-71
2023/10/24 17:29:04;;;;;;;3.50;0.88;;;;;;;;;;5067880;28;20138;-72
2023/10/24 17:32:44;;;;;;;1.92;0.70;;;;;;;;;;5059697;28;20053;-70
2023/10/24 17:36:26;;;;;;;2.00;0.90;;;;;;;;;;5065086;28;20066;-73
2023/10/24 17:40:10;;;;;;;1.20;0.75;;;;;;;;;;5061909;28;20398;-72
2023/10/24 17:43:50;;;;;;;4.22;0.80;;;;;;;;;;5058388;28;20200;-69
2023/10/24 17:47:32;;;;;;;6.03;0.98;;;;;;;;;;5062249;28;20048;-70
2023/10/24 17:51:15;;;;;;;1.00;0.70;;;;;;;;;;5062911;28;20108;-71
2023/10/24 17:54:58;;;;;;;4.05;0.73;;;;;;;;;;5063847;28;20032;-70
2023/10/24 17:58:40;;;;;;;1.35;0.82;;;;;;;;;;5070407;28;20181;-69
2023/10/24 18:02:21;;;;;;;1.00;0.70;;;;;;;;;;5064967;28;20044;-69
2023/10/24 18:06:00;;;;;;;3.53;1.10;;;;;;;;;;5072898;28;20590;-71
2023/10/24 18:09:41;;;;;;;4.45;0.95;;;;;;;;;;5066879;28;20464;-71
2023/10/24 18:13:22;;;;;;;1.70;0.80;;;;;;;;;;5069331;28;20072;-70
2023/10/24 18:17:05;;;;;;;2.75;0.75;;;;;;;;;;5059923;28;20087;-72
2023/10/24 18:20:47;;;;;;;1.13;0.57;;;;;;;;;;5058814;28;20920;-72
2023/10/24 18:24:29;;;;;;;3.78;1.05;;;;;;;;;;5059799;28;20045;-70
2023/10/24 18:28:10;;;;;;;2.70;0.90;;;;;;;;;;5053374;28;20040;-69
2023/10/24 18:31:50;;;;;;;2.75;0.70;;;;;;;;;;5049880;28;20106;-67
2023/10/24 18:35:30;;;;;;;2.20;0.65;;;;;;;;;;5064620;28;20044;-68
2023/10/24 18:39:11;;;;;;;2.17;0.70;;;;;;;;;;5058152;28;20071;-71
2023/10/24 18:42:55;;;;;;;1.55;0.80;;;;;;;;;;5052454;28;20061;-71
2023/10/24 18:46:31;;;;;;;2.45;0.80;;;;;;;;;;5057834;28;20056;-72
2023/10/24 18:50:12;;;;;;;2.03;0.77;;;;;;;;;;5060858;28;20053;-70
2023/10/24 18:53:53;;;;;;;2.28;0.82;;;;;;;;;;5063480;28;20056;-69
2023/10/24 18:57:34;;;;;;;3.28;0.90;;;;;;;;;;5059396;28;20056;-70
2023/10/24 19:01:14;;;;;;;2.28;1.02;;;;;;;;;;5052606;28;20057;-72
2023/10/24 19:04:54;;;;;;;2.10;0.90;;;;;;;;;;5046382;28;20416;-72